Time;durP1;ratioP1;P1;durP2;ratioP2;P2;SDS_P1;SDS_P2;PMS_P1;PMS_P2;Temp;Humidity;BMP_temperature;BMP_pressure;BME280_temperature;BME280_humidity;BME280_pressure;Samples;Min_cycle;Max_cycle;Signal;HPM_P1;HPM_P2
2021/03/05 00:02:17;;;;;;;12.73;8.90;;;2.80;99.90;;;;;;4977067;28;20191;-95
2021/03/05 00:04:43;;;;;;;13.07;8.67;;;2.80;99.90;;;;;;4978171;28;20640;-95
2021/03/05 00:07:08;;;;;;;14.20;8.83;;;2.90;99.90;;;;;;4977119;28;20207;-93
2021/03/05 00:09:37;;;;;;;11.43;8.50;;;2.80;99.90;;;;;;4976623;28;20208;-94
2021/03/05 00:12:03;;;;;;;14.90;9.20;;;2.80;99.90;;;;;;4976419;28;20211;-95
2021/03/05 00:14:28;;;;;;;12.90;8.93;;;2.70;99.90;;;;;;4976763;28;20191;-93
2021/03/05 00:16:54;;;;;;;11.93;8.43;;;2.80;99.90;;;;;;4976327;28;20187;-94
2021/03/05 00:19:20;;;;;;;10.20;7.73;;;2.80;99.90;;;;;;4976619;28;20239;-94
2021/03/05 00:21:45;;;;;;;12.27;8.07;;;2.80;99.90;;;;;;4976532;28;20222;-94
2021/03/05 00:24:11;;;;;;;13.17;8.57;;;2.70;99.90;;;;;;4976328;28;20303;-94
2021/03/05 00:26:37;;;;;;;14.33;8.43;;;2.70;99.90;;;;;;4976576;28;20192;-94
2021/03/05 00:29:03;;;;;;;13.53;8.67;;;2.70;99.90;;;;;;4976147;28;20183;-95
2021/03/05 00:31:28;;;;;;;11.87;8.40;;;2.70;99.90;;;;;;4976264;28;20184;-94
2021/03/05 00:33:54;;;;;;;16.20;8.60;;;2.80;99.90;;;;;;4976034;28;20255;-93
2021/03/05 00:36:20;;;;;;;10.60;7.97;;;2.70;99.90;;;;;;4977228;28;20615;-93
2021/03/05 00:38:45;;;;;;;11.60;8.30;;;2.60;99.90;;;;;;4976557;28;20556;-95
2021/03/05 00:41:11;;;;;;;11.63;8.00;;;2.60;99.90;;;;;;4976007;28;20232;-94
2021/03/05 00:43:37;;;;;;;12.27;8.10;;;2.60;99.90;;;;;;4975918;28;20344;-94
2021/03/05 00:46:02;;;;;;;14.67;8.33;;;2.60;99.90;;;;;;4975600;28;20184;-94
2021/03/05 00:48:28;;;;;;;14.63;7.80;;;2.60;99.90;;;;;;4975886;28;20184;-93
2021/03/05 00:50:54;;;;;;;11.80;8.30;;;2.60;99.90;;;;;;4975709;28;20236;-94
2021/03/05 00:53:19;;;;;;;12.13;8.37;;;2.60;99.90;;;;;;4976878;28;20255;-94
2021/03/05 00:55:45;;;;;;;10.73;7.50;;;2.50;99.90;;;;;;4975794;28;20498;-93
2021/03/05 00:58:11;;;;;;;12.07;7.77;;;2.50;99.90;;;;;;4975750;28;20191;-94
2021/03/05 01:00:38;;;;;;;11.53;8.20;;;2.40;99.90;;;;;;4975252;28;20228;-93
2021/03/05 01:03:04;;;;;;;16.47;8.70;;;2.40;99.90;;;;;;4975832;28;20227;-95
2021/03/05 01:05:30;;;;;;;13.40;8.50;;;2.30;99.90;;;;;;4975544;28;20538;-94
2021/03/05 01:07:55;;;;;;;10.37;7.93;;;2.30;99.90;;;;;;4975427;28;20180;-94
2021/03/05 01:10:22;;;;;;;12.40;8.23;;;2.30;99.90;;;;;;4975386;28;20188;-94
2021/03/05 01:12:47;;;;;;;11.73;8.60;;;2.30;99.90;;;;;;4975596;28;20674;-94
2021/03/05 01:15:13;;;;;;;13.63;8.47;;;2.20;99.90;;;;;;4975449;28;20180;-94
2021/03/05 01:17:39;;;;;;;13.73;8.50;;;2.30;99.90;;;;;;4975336;28;20173;-94
2021/03/05 01:20:12;;;;;;;11.63;8.43;;;2.20;99.90;;;;;;4975647;28;20568;-94
2021/03/05 01:22:38;;;;;;;11.73;7.70;;;2.20;99.90;;;;;;4975349;28;20685;-94
2021/03/05 01:25:07;;;;;;;13.17;8.23;;;2.20;99.90;;;;;;4975264;28;20180;-94
2021/03/05 01:27:34;;;;;;;12.73;7.93;;;2.10;99.90;;;;;;4975009;28;20184;-94
2021/03/05 01:30:01;;;;;;;11.73;8.07;;;2.10;99.90;;;;;;4965839;28;20188;-94
2021/03/05 01:32:26;;;;;;;14.07;8.23;;;2.10;99.90;;;;;;4955986;29;20188;-94
2021/03/05 01:34:52;;;;;;;12.57;8.27;;;2.10;99.90;;;;;;4955835;29;20177;-94
2021/03/05 01:37:18;;;;;;;13.27;7.97;;;2.10;99.90;;;;;;4955582;29;20192;-94
2021/03/05 01:39:43;;;;;;;12.70;8.13;;;2.00;99.90;;;;;;4955902;29;20270;-94
2021/03/05 01:42:09;;;;;;;10.30;7.80;;;2.00;99.90;;;;;;4956254;29;20575;-94
2021/03/05 01:44:35;;;;;;;11.60;7.87;;;2.00;99.90;;;;;;4955949;29;20178;-95
2021/03/05 01:47:01;;;;;;;12.07;7.73;;;2.00;99.90;;;;;;4955818;29;20177;-93
2021/03/05 01:49:26;;;;;;;13.70;8.43;;;2.00;99.90;;;;;;4955943;29;20240;-94
2021/03/05 01:51:52;;;;;;;14.03;7.93;;;2.00;99.90;;;;;;4955797;29;20179;-94
2021/03/05 01:54:18;;;;;;;16.07;8.23;;;1.90;99.90;;;;;;4955781;29;20561;-95
2021/03/05 01:56:48;;;;;;;13.93;7.70;;;1.90;99.90;;;;;;4955854;29;20199;-94
2021/03/05 01:59:19;;;;;;;11.00;7.23;;;1.80;99.90;;;;;;4958631;28;20236;-93
2021/03/05 02:01:44;;;;;;;12.53;7.97;;;1.70;99.90;;;;;;4975638;28;20180;-95
2021/03/05 02:04:12;;;;;;;14.23;7.90;;;1.70;99.90;;;;;;4974998;28;20618;-94
2021/03/05 02:06:38;;;;;;;15.03;8.23;;;1.70;99.90;;;;;;4974906;28;20642;-93
2021/03/05 02:09:05;;;;;;;10.70;7.33;;;1.70;99.90;;;;;;4974992;28;20197;-95
2021/03/05 02:11:31;;;;;;;12.03;8.63;;;1.60;99.90;;;;;;4975004;28;20217;-95
2021/03/05 02:14:00;;;;;;;12.73;7.60;;;1.60;99.90;;;;;;4974941;28;20206;-94
2021/03/05 02:16:55;;;;;;;11.97;7.03;;;1.50;99.90;;;;;;4974593;28;20180;-94
2021/03/05 02:19:41;;;;;;;9.97;6.90;;;1.60;99.90;;;;;;4974799;28;20635;-94
2021/03/05 02:22:12;;;;;;;13.17;7.40;;;1.60;99.90;;;;;;4974956;28;20173;-94
2021/03/05 02:24:47;;;;;;;10.43;6.77;;;1.60;99.90;;;;;;4975168;28;20621;-93
2021/03/05 02:27:32;;;;;;;10.47;6.07;;;1.50;99.90;;;;;;4974423;28;20174;-95
2021/03/05 02:30:21;;;;;;;8.40;5.83;;;1.60;99.90;;;;;;4975081;28;20200;-94
2021/03/05 02:33:03;;;;;;;9.97;5.50;;;1.50;99.90;;;;;;4974947;28;20177;-94
2021/03/05 02:35:32;;;;;;;8.10;5.23;;;1.50;99.90;;;;;;4974692;28;20619;-93
2021/03/05 02:38:03;;;;;;;8.57;5.03;;;1.50;99.90;;;;;;4974798;28;20628;-94
2021/03/05 02:40:34;;;;;;;8.43;4.43;;;1.50;99.90;;;;;;4961595;28;20175;-95
2021/03/05 02:43:04;;;;;;;9.47;4.83;;;1.50;99.90;;;;;;4978639;28;20204;-94
2021/03/05 02:45:35;;;;;;;11.03;4.50;;;1.40;99.90;;;;;;4977701;28;20181;-94
2021/03/05 02:48:07;;;;;;;6.53;3.87;;;1.40;99.90;;;;;;4978193;28;20187;-94
2021/03/05 02:50:36;;;;;;;8.03;4.07;;;1.50;99.90;;;;;;4978242;28;20181;-94
2021/03/05 02:53:05;;;;;;;6.17;3.80;;;1.40;99.90;;;;;;4978170;28;20181;-94
2021/03/05 02:55:32;;;;;;;6.93;3.50;;;1.50;99.90;;;;;;4977964;28;20180;-94
2021/03/05 02:58:00;;;;;;;7.70;3.20;;;1.40;99.90;;;;;;4978436;28;20658;-94
2021/03/05 03:00:28;;;;;;;9.63;3.23;;;1.40;99.90;;;;;;4977503;28;20246;-95
2021/03/05 03:02:54;;;;;;;9.33;3.50;;;1.40;99.90;;;;;;4978019;28;20261;-94
2021/03/05 03:05:21;;;;;;;7.00;3.03;;;1.40;99.90;;;;;;4978420;28;20607;-95
2021/03/05 03:07:49;;;;;;;4.83;2.77;;;1.40;99.90;;;;;;4977683;28;20190;-93
2021/03/05 03:10:16;;;;;;;8.43;3.07;;;1.30;99.90;;;;;;4978048;28;20621;-95
2021/03/05 03:12:45;;;;;;;5.70;2.53;;;1.20;99.90;;;;;;4977411;28;20195;-95
2021/03/05 03:15:13;;;;;;;6.53;2.77;;;1.20;99.90;;;;;;4977577;28;20179;-94
2021/03/05 03:17:42;;;;;;;6.17;1.83;;;1.10;99.90;;;;;;4978757;28;20266;-95
2021/03/05 03:20:09;;;;;;;9.90;2.80;;;1.10;99.90;;;;;;4978401;28;20715;-95
2021/03/05 03:22:35;;;;;;;5.13;2.37;;;1.00;99.90;;;;;;4978219;28;20207;-94
2021/03/05 03:25:01;;;;;;;7.90;2.63;;;0.90;99.90;;;;;;4978125;28;20530;-94
2021/03/05 03:27:27;;;;;;;5.53;2.30;;;0.90;99.90;;;;;;4978436;28;20186;-93
2021/03/05 03:29:53;;;;;;;6.27;1.90;;;0.90;99.90;;;;;;4979284;28;20591;-95
2021/03/05 03:32:19;;;;;;;2.97;2.03;;;0.80;99.90;;;;;;4988968;28;20176;-96
2021/03/05 03:34:46;;;;;;;7.00;2.47;;;0.70;99.90;;;;;;4988482;28;20202;-96
2021/03/05 03:37:15;;;;;;;4.10;1.80;;;0.70;99.90;;;;;;4993855;28;20167;-94
2021/03/05 03:39:42;;;;;;;5.77;2.03;;;0.70;99.90;;;;;;4992806;28;20206;-95
2021/03/05 03:42:07;;;;;;;5.00;1.80;;;0.60;99.90;;;;;;4985449;28;20187;-95
2021/03/05 03:44:33;;;;;;;6.30;2.10;;;0.50;99.90;;;;;;4978597;28;20538;-96
2021/03/05 03:47:00;;;;;;;4.33;1.97;;;0.50;99.90;;;;;;4981535;28;20183;-93
2021/03/05 03:49:49;;;;;;;5.23;2.07;;;0.50;99.90;;;;;;4980300;28;20192;-95
2021/03/05 03:52:24;;;;;;;6.17;1.87;;;0.40;99.90;;;;;;4979361;28;20177;-94
2021/03/05 03:54:51;;;;;;;11.90;2.50;;;0.40;99.90;;;;;;4978614;28;20272;-95
2021/03/05 03:57:19;;;;;;;4.93;1.70;;;0.40;99.90;;;;;;4979649;28;20271;-96
2021/03/05 03:59:46;;;;;;;8.40;2.10;;;0.30;99.90;;;;;;4979427;28;20240;-94
2021/03/05 04:02:13;;;;;;;4.67;2.00;;;0.30;99.90;;;;;;4980385;28;20190;-95
2021/03/05 04:04:39;;;;;;;6.23;2.00;;;0.20;99.90;;;;;;4979464;28;20526;-96
2021/03/05 04:07:07;;;;;;;8.63;1.80;;;0.20;99.90;;;;;;4979202;28;20191;-95
2021/03/05 04:09:35;;;;;;;9.43;2.33;;;0.20;99.90;;;;;;4979415;28;20187;-95
2021/03/05 04:12:03;;;;;;;10.10;2.17;;;0.10;99.90;;;;;;4978192;28;20202;-94
2021/03/05 04:14:30;;;;;;;6.40;1.90;;;0.10;99.90;;;;;;4978837;28;20640;-95
2021/03/05 04:16:56;;;;;;;2.30;1.40;;;0.10;99.90;;;;;;4979502;28;20204;-95
2021/03/05 04:19:23;;;;;;;6.40;1.93;;;0.10;99.90;;;;;;4979528;28;20181;-95
2021/03/05 04:21:51;;;;;;;6.70;1.70;;;0.10;99.90;;;;;;4978952;28;20279;-95
2021/03/05 04:24:18;;;;;;;4.83;1.40;;;0.00;99.90;;;;;;4978606;28;20248;-96
2021/03/05 04:26:45;;;;;;;5.07;1.77;;;0.00;99.90;;;;;;4977980;28;20186;-95
2021/03/05 04:29:11;;;;;;;7.87;2.80;;;0.00;99.90;;;;;;4978060;28;20284;-96
2021/03/05 04:31:37;;;;;;;4.80;1.70;;;0.00;99.90;;;;;;4979213;28;20226;-96
2021/03/05 04:34:02;;;;;;;5.30;1.57;;;-0.10;99.90;;;;;;4981745;28;20191;-96
2021/03/05 04:36:28;;;;;;;4.23;1.67;;;-0.10;99.90;;;;;;4979964;28;20185;-96
2021/03/05 04:38:54;;;;;;;4.17;1.47;;;-0.10;99.90;;;;;;4980778;28;20187;-96
2021/03/05 04:41:20;;;;;;;5.93;2.03;;;-0.20;99.90;;;;;;4985329;28;20173;-94
2021/03/05 04:43:47;;;;;;;7.57;1.83;;;-0.20;99.90;;;;;;4982019;28;20630;-96
2021/03/05 04:46:13;;;;;;;5.80;1.97;;;-0.20;99.90;;;;;;4982231;28;20186;-95
2021/03/05 04:48:39;;;;;;;7.47;2.07;;;-0.20;99.90;;;;;;4980981;28;20181;-95
2021/03/05 04:51:06;;;;;;;4.43;1.53;;;-0.20;99.90;;;;;;4982814;28;20318;-95
2021/03/05 04:53:32;;;;;;;3.73;1.53;;;-0.20;99.90;;;;;;4980342;28;20183;-95
2021/03/05 04:55:57;;;;;;;4.07;1.80;;;-0.20;99.90;;;;;;4976742;28;20184;-95
2021/03/05 04:58:23;;;;;;;3.40;1.60;;;-0.20;99.90;;;;;;4975080;28;20570;-94
2021/03/05 05:00:49;;;;;;;4.77;1.90;;;-0.30;99.90;;;;;;4975960;28;20245;-94
2021/03/05 05:03:14;;;;;;;6.10;2.30;;;-0.20;99.90;;;;;;4974612;28;20563;-95
2021/03/05 05:05:40;;;;;;;6.97;2.10;;;-0.20;99.90;;;;;;4975475;28;20206;-95
2021/03/05 05:08:07;;;;;;;5.87;2.13;;;-0.10;99.90;;;;;;4975593;28;20214;-95
2021/03/05 05:10:33;;;;;;;4.43;1.80;;;-0.10;99.90;;;;;;4975426;28;20184;-94
2021/03/05 05:12:58;;;;;;;6.13;2.30;;;-0.10;99.90;;;;;;4975364;28;20192;-95
2021/03/05 05:15:24;;;;;;;6.27;2.20;;;-0.10;99.90;;;;;;4975361;28;20189;-95
2021/03/05 05:17:50;;;;;;;5.33;2.30;;;-0.10;99.90;;;;;;4975690;28;20321;-96
2021/03/05 05:20:16;;;;;;;5.23;1.90;;;-0.20;99.90;;;;;;4975520;28;20325;-94
2021/03/05 05:22:42;;;;;;;4.37;1.83;;;-0.20;99.90;;;;;;4975943;28;20222;-96
2021/03/05 05:25:08;;;;;;;8.33;2.30;;;-0.30;99.90;;;;;;4975564;28;20198;-96
2021/03/05 05:27:34;;;;;;;8.57;2.40;;;-0.30;99.90;;;;;;4975347;28;20191;-96
2021/03/05 05:30:01;;;;;;;5.47;2.10;;;-0.30;99.90;;;;;;4975224;28;20609;-96
2021/03/05 05:32:27;;;;;;;6.57;2.13;;;-0.40;99.90;;;;;;4975530;28;20284;-96
2021/03/05 05:34:53;;;;;;;4.13;2.07;;;-0.40;99.90;;;;;;4975429;28;20190;-95
2021/03/05 05:37:19;;;;;;;9.37;3.20;;;-0.40;99.90;;;;;;4975488;28;20184;-94
2021/03/05 05:39:45;;;;;;;9.10;2.33;;;-0.40;99.90;;;;;;4975465;28;20184;-95
2021/03/05 05:42:10;;;;;;;6.80;2.40;;;-0.30;99.90;;;;;;4975445;28;20541;-95
2021/03/05 05:44:36;;;;;;;6.60;2.57;;;-0.30;99.90;;;;;;4974859;28;20225;-95
2021/03/05 05:47:04;;;;;;;8.33;2.83;;;-0.20;99.90;;;;;;4974827;28;20182;-96
2021/03/05 05:49:30;;;;;;;11.00;2.70;;;-0.30;99.90;;;;;;4975351;28;20187;-94
2021/03/05 05:52:04;;;;;;;4.27;1.97;;;-0.20;99.90;;;;;;4975354;28;20179;-96
2021/03/05 05:54:31;;;;;;;9.27;2.20;;;-0.30;99.90;;;;;;4976001;28;20607;-95
2021/03/05 05:57:00;;;;;;;4.03;1.90;;;-0.40;99.90;;;;;;4974820;28;20183;-95
2021/03/05 05:59:26;;;;;;;5.47;2.23;;;-0.30;99.90;;;;;;4974846;28;20232;-95
2021/03/05 06:01:53;;;;;;;5.70;2.23;;;-0.30;99.90;;;;;;4975168;28;20174;-95
2021/03/05 06:04:19;;;;;;;8.17;2.00;;;-0.30;99.90;;;;;;4974978;28;20289;-95
2021/03/05 06:06:46;;;;;;;7.20;2.20;;;-0.30;99.90;;;;;;4969793;28;20187;-95
2021/03/05 06:09:11;;;;;;;6.27;2.27;;;-0.40;99.90;;;;;;4963915;28;20532;-95
2021/03/05 06:11:39;;;;;;;5.37;2.10;;;-0.40;99.90;;;;;;4966454;28;20186;-96
2021/03/05 06:14:11;;;;;;;8.10;2.37;;;-0.50;99.90;;;;;;4964306;28;20203;-96
2021/03/05 06:16:55;;;;;;;8.60;2.87;;;-0.60;99.90;;;;;;4964489;28;20568;-96
2021/03/05 06:19:22;;;;;;;5.17;1.70;;;-0.60;99.90;;;;;;4974069;28;20184;-96
2021/03/05 06:21:48;;;;;;;6.40;2.40;;;-0.70;99.90;;;;;;4978957;28;20210;-96
2021/03/05 06:24:23;;;;;;;8.57;2.57;;;-0.70;99.90;;;;;;4978552;28;20213;-96
2021/03/05 06:26:58;;;;;;;6.33;2.30;;;-0.70;99.90;;;;;;4984943;28;20266;-96
2021/03/05 06:29:28;;;;;;;4.33;2.00;;;-0.70;99.90;;;;;;4985055;28;20189;-96
2021/03/05 06:32:01;;;;;;;7.87;2.07;;;-0.60;99.90;;;;;;4970631;28;20188;-96
2021/03/05 06:34:30;;;;;;;6.00;2.17;;;-0.60;99.90;;;;;;4986277;28;20208;-96
2021/03/05 06:37:05;;;;;;;11.40;2.73;;;-0.60;99.90;;;;;;4967493;29;20227;-96
2021/03/05 06:39:34;;;;;;;7.03;2.67;;;-0.70;99.90;;;;;;4974164;28;20203;-96
2021/03/05 06:42:08;;;;;;;7.57;2.33;;;-0.60;99.90;;;;;;4971987;28;20189;-96
2021/03/05 06:44:41;;;;;;;6.07;2.00;;;-0.60;99.90;;;;;;4973629;28;20248;-96
2021/03/05 06:47:13;;;;;;;5.97;2.50;;;-0.60;99.90;;;;;;4973517;28;20690;-96
2021/03/05 06:49:43;;;;;;;4.53;1.97;;;-0.50;99.90;;;;;;4983709;28;20208;-96
2021/03/05 06:52:12;;;;;;;6.40;2.00;;;-0.50;99.90;;;;;;4989002;28;20222;-96
2021/03/05 06:54:40;;;;;;;3.87;2.13;;;-0.50;99.90;;;;;;4986253;28;20188;-96
2021/03/05 06:57:10;;;;;;;6.00;2.10;;;-0.50;99.90;;;;;;4988853;28;20193;-96
2021/03/05 06:59:41;;;;;;;10.97;2.07;;;-0.50;99.90;;;;;;4981694;28;20235;-96
2021/03/05 07:02:14;;;;;;;8.43;2.80;;;-0.40;99.90;;;;;;4981976;28;20197;-96
2021/03/05 07:04:47;;;;;;;7.10;3.60;;;-0.40;99.90;;;;;;4969124;28;20224;-96
2021/03/05 07:07:15;;;;;;;7.57;2.73;;;-0.40;99.90;;;;;;4992056;28;20190;-96
2021/03/05 07:09:52;;;;;;;9.60;2.10;;;-0.40;99.90;;;;;;4970614;28;20212;-96
2021/03/05 07:12:28;;;;;;;7.77;4.37;;;-0.30;99.90;;;;;;4990155;28;20190;-96
2021/03/05 07:15:09;;;;;;;9.57;2.27;;;-0.30;99.90;;;;;;4976150;28;20190;-95
2021/03/05 07:17:36;;;;;;;10.30;2.37;;;-0.30;99.90;;;;;;4986669;28;20531;-96
2021/03/05 07:20:04;;;;;;;4.63;1.70;;;-0.20;99.90;;;;;;4987525;28;20209;-96
2021/03/05 07:22:31;;;;;;;5.80;2.00;;;-0.10;99.90;;;;;;4989935;28;20180;-96
2021/03/05 07:25:02;;;;;;;8.20;1.93;;;-0.10;99.90;;;;;;4987800;28;20194;-96
2021/03/05 07:27:41;;;;;;;4.47;1.90;;;0.00;99.90;;;;;;4982543;28;20185;-96
2021/03/05 07:30:16;;;;;;;11.70;2.60;;;0.00;99.90;;;;;;4986273;28;20526;-96
2021/03/05 07:32:48;;;;;;;8.67;2.73;;;0.00;99.90;;;;;;4981873;28;20183;-96
2021/03/05 07:35:23;;;;;;;6.10;2.00;;;0.00;99.90;;;;;;4961758;28;20187;-94
2021/03/05 07:37:59;;;;;;;4.60;1.90;;;0.20;99.90;;;;;;4979568;28;20175;-95
2021/03/05 07:40:29;;;;;;;6.37;1.93;;;0.20;99.90;;;;;;4982279;28;20162;-96
2021/03/05 07:42:58;;;;;;;26.40;9.53;;;0.30;99.90;;;;;;4982739;28;20241;-96
2021/03/05 07:45:25;;;;;;;8.13;2.40;;;0.30;99.90;;;;;;4967252;28;20223;-96
2021/03/05 07:47:56;;;;;;;7.63;2.67;;;0.30;99.90;;;;;;4982993;28;20172;-96
2021/03/05 07:50:26;;;;;;;5.27;2.37;;;0.40;99.90;;;;;;4983032;28;20192;-96
2021/03/05 07:52:58;;;;;;;13.43;4.80;;;0.50;99.90;;;;;;4980303;28;20184;-96
2021/03/05 07:55:40;;;;;;;6.13;1.73;;;0.50;99.90;;;;;;4973491;28;20196;-96
2021/03/05 07:58:07;;;;;;;9.07;4.30;;;0.50;99.90;;;;;;4974954;28;20245;-96
2021/03/05 08:01:00;;;;;;;6.30;2.23;;;0.60;99.90;;;;;;4971363;28;20288;-96
2021/03/05 08:03:54;;;;;;;46.97;26.90;;;0.60;99.90;;;;;;4965223;29;20243;-96
2021/03/05 08:06:32;;;;;;;16.87;9.67;;;0.70;99.90;;;;;;4955515;28;20198;-96
2021/03/05 08:09:16;;;;;;;15.27;8.87;;;0.70;99.90;;;;;;4983906;28;20215;-96
2021/03/05 08:11:53;;;;;;;16.33;8.37;;;0.80;99.90;;;;;;4978496;28;20197;-96
2021/03/05 08:14:29;;;;;;;4.40;1.70;;;0.90;99.90;;;;;;4978382;28;20195;-96
2021/03/05 08:16:55;;;;;;;6.97;2.93;;;1.00;99.90;;;;;;4980591;28;20187;-96
2021/03/05 08:19:25;;;;;;;5.77;2.20;;;1.10;99.90;;;;;;4983265;28;20183;-96
2021/03/05 08:21:51;;;;;;;11.50;3.80;;;1.10;99.90;;;;;;4967235;28;20224;-96
2021/03/05 08:24:28;;;;;;;5.67;2.00;;;1.10;99.90;;;;;;4982202;28;20270;-96
2021/03/05 08:27:05;;;;;;;7.57;2.10;;;1.20;99.90;;;;;;4982028;28;20177;-96
2021/03/05 08:29:50;;;;;;;5.17;1.83;;;1.20;99.90;;;;;;4981833;28;20203;-95
2021/03/05 08:32:34;;;;;;;5.33;1.80;;;1.20;99.90;;;;;;4979904;28;20583;-96
2021/03/05 08:35:07;;;;;;;4.70;1.20;;;1.30;99.90;;;;;;4978915;28;20191;-96
2021/03/05 08:37:33;;;;;;;7.77;3.63;;;1.40;99.90;;;;;;4979060;28;20176;-96
2021/03/05 08:40:14;;;;;;;9.70;3.03;;;1.40;99.90;;;;;;4975588;28;20211;-96
2021/03/05 08:42:44;;;;;;;7.93;2.10;;;1.40;99.90;;;;;;4972604;28;20191;-95
2021/03/05 08:45:13;;;;;;;4.53;1.80;;;1.50;99.90;;;;;;4971399;28;20623;-95
2021/03/05 08:47:59;;;;;;;4.53;2.10;;;1.60;99.90;;;;;;4975205;28;20679;-95
2021/03/05 08:50:31;;;;;;;6.17;2.20;;;1.60;99.90;;;;;;4975842;28;20183;-95
2021/03/05 08:52:59;;;;;;;4.93;1.80;;;1.60;99.90;;;;;;4974745;28;20275;-95
2021/03/05 08:55:32;;;;;;;7.67;2.33;;;1.80;99.90;;;;;;4974548;28;20266;-94
2021/03/05 08:57:58;;;;;;;9.20;2.97;;;1.80;99.90;;;;;;4959859;28;20182;-95
2021/03/05 09:00:33;;;;;;;8.87;1.90;;;1.90;99.90;;;;;;4975395;28;20242;-95
2021/03/05 09:03:18;;;;;;;6.90;2.33;;;2.00;99.90;;;;;;4974014;28;20212;-95
2021/03/05 09:05:47;;;;;;;6.93;1.80;;;2.00;99.90;;;;;;4973797;28;20200;-94
2021/03/05 09:08:15;;;;;;;5.00;1.70;;;2.10;99.90;;;;;;4972582;28;21291;-96
2021/03/05 09:10:47;;;;;;;10.93;2.20;;;2.20;99.90;;;;;;4975174;28;20177;-96
2021/03/05 09:13:16;;;;;;;5.83;1.73;;;2.20;99.90;;;;;;4974830;28;20491;-96
2021/03/05 09:15:46;;;;;;;4.77;1.67;;;2.30;99.90;;;;;;4975259;28;20235;-95
2021/03/05 09:18:17;;;;;;;6.73;1.97;;;2.40;99.90;;;;;;4974346;28;20192;-94
2021/03/05 09:21:07;;;;;;;5.60;1.87;;;2.50;99.90;;;;;;4969599;28;20181;-93
2021/03/05 09:23:37;;;;;;;7.40;2.00;;;2.60;99.90;;;;;;4967534;28;20254;-95
2021/03/05 09:26:15;;;;;;;5.13;1.73;;;2.60;99.90;;;;;;4975065;28;20181;-95
2021/03/05 09:28:43;;;;;;;7.23;2.17;;;2.70;99.90;;;;;;4975329;28;20206;-95
2021/03/05 09:31:13;;;;;;;12.07;2.40;;;2.80;99.90;;;;;;4974502;28;20176;-93
2021/03/05 09:33:41;;;;;;;5.47;2.03;;;2.90;99.90;;;;;;4981226;28;20185;-94
2021/03/05 09:36:08;;;;;;;7.47;1.70;;;3.00;99.90;;;;;;4955241;29;20185;-93
2021/03/05 09:38:35;;;;;;;6.70;1.60;;;3.00;99.90;;;;;;4966689;28;20189;-94
2021/03/05 09:41:20;;;;;;;7.37;1.77;;;3.10;99.90;;;;;;4966591;28;20177;-93
2021/03/05 09:44:07;;;;;;;5.67;1.70;;;3.10;99.90;;;;;;4957838;28;20216;-94
2021/03/05 09:46:35;;;;;;;8.27;1.70;;;3.10;99.90;;;;;;4961690;28;20183;-93
2021/03/05 09:49:27;;;;;;;7.93;2.20;;;3.10;99.90;;;;;;4973588;28;20568;-94
2021/03/05 09:51:53;;;;;;;7.77;1.37;;;2.90;99.90;;;;;;4974088;28;20177;-94
2021/03/05 09:54:40;;;;;;;3.57;1.37;;;3.00;99.90;;;;;;4972426;28;20642;-93
2021/03/05 09:57:07;;;;;;;7.70;1.63;;;3.20;99.90;;;;;;4965582;28;20279;-94
2021/03/05 09:59:48;;;;;;;6.37;1.73;;;3.20;99.90;;;;;;4967506;28;20236;-94
2021/03/05 10:02:22;;;;;;;4.97;1.30;;;3.30;99.90;;;;;;4965430;28;20189;-94
2021/03/05 10:04:51;;;;;;;7.37;1.80;;;3.30;99.90;;;;;;4964576;28;20598;-94
2021/03/05 10:07:19;;;;;;;4.50;1.40;;;3.20;99.90;;;;;;4974088;28;20184;-94
2021/03/05 10:09:45;;;;;;;2.50;1.20;;;3.30;99.90;;;;;;4974587;28;20528;-94
2021/03/05 10:12:11;;;;;;;4.37;1.47;;;3.50;99.90;;;;;;4974633;28;20251;-95
2021/03/05 10:14:39;;;;;;;3.77;1.37;;;3.60;99.90;;;;;;4974760;28;20184;-96
2021/03/05 10:17:15;;;;;;;4.60;1.37;;;3.70;99.90;;;;;;4974308;28;20190;-95
2021/03/05 10:19:42;;;;;;;4.17;1.50;;;3.70;99.90;;;;;;4974420;28;20236;-95
2021/03/05 10:22:09;;;;;;;5.63;1.50;;;3.70;99.90;;;;;;4974505;28;20653;-95
2021/03/05 10:24:35;;;;;;;3.90;1.30;;;3.70;99.90;;;;;;4974576;28;20223;-94
2021/03/05 10:27:19;;;;;;;6.27;1.67;;;3.90;99.90;;;;;;4974238;28;20279;-93
2021/03/05 10:29:48;;;;;;;3.90;1.33;;;3.90;99.90;;;;;;4974061;28;20196;-95
2021/03/05 10:32:23;;;;;;;5.57;1.37;;;3.90;99.90;;;;;;4974288;28;20186;-94
2021/03/05 10:34:54;;;;;;;2.83;1.20;;;3.90;99.90;;;;;;4974450;28;20225;-94
2021/03/05 10:37:20;;;;;;;3.87;0.90;;;4.10;99.90;;;;;;4974605;28;20184;-95
2021/03/05 10:39:47;;;;;;;4.07;0.97;;;4.30;99.90;;;;;;4974829;28;20259;-94
2021/03/05 10:42:15;;;;;;;2.27;1.00;;;4.40;99.90;;;;;;4974003;28;20189;-94
2021/03/05 10:44:43;;;;;;;6.53;1.70;;;4.40;99.90;;;;;;4973803;28;20223;-94
2021/03/05 10:47:10;;;;;;;4.80;1.47;;;4.50;99.90;;;;;;4973470;28;20192;-94
2021/03/05 10:49:40;;;;;;;3.07;1.00;;;4.40;99.90;;;;;;4966577;28;20251;-92
2021/03/05 10:52:07;;;;;;;2.00;0.90;;;4.20;99.90;;;;;;4959496;28;20193;-96
2021/03/05 10:54:33;;;;;;;2.63;1.10;;;4.20;99.90;;;;;;4974093;28;20195;-96
2021/03/05 10:56:59;;;;;;;3.13;0.90;;;4.40;99.90;;;;;;4969910;28;20190;-94
2021/03/05 10:59:26;;;;;;;2.23;0.63;;;4.40;99.90;;;;;;4973864;28;20283;-95
2021/03/05 11:01:53;;;;;;;3.93;1.17;;;4.40;99.90;;;;;;4975098;28;20602;-94
2021/03/05 11:04:23;;;;;;;2.63;0.97;;;4.70;99.90;;;;;;4977705;28;20643;-95
2021/03/05 11:06:50;;;;;;;2.37;0.90;;;4.90;99.90;;;;;;4971395;28;20528;-94
2021/03/05 11:09:16;;;;;;;2.93;1.10;;;5.10;99.90;;;;;;4958234;29;20184;-94
2021/03/05 11:11:43;;;;;;;3.03;0.83;;;5.10;99.90;;;;;;4958105;29;20184;-94
2021/03/05 11:14:10;;;;;;;1.70;0.90;;;5.10;99.90;;;;;;4958263;29;20272;-95
2021/03/05 11:16:36;;;;;;;3.73;0.97;;;5.00;99.80;;;;;;4958049;29;20211;-95
2021/03/05 11:19:03;;;;;;;1.80;0.70;;;5.10;99.80;;;;;;4957950;29;20221;-95
2021/03/05 11:21:29;;;;;;;2.93;0.70;;;5.20;98.30;;;;;;4957900;29;20208;-94
2021/03/05 11:23:55;;;;;;;1.93;0.67;;;5.10;97.20;;;;;;4967638;28;20265;-94
2021/03/05 11:26:22;;;;;;;4.17;0.83;;;5.10;96.50;;;;;;4976667;28;20185;-95
2021/03/05 11:28:48;;;;;;;1.77;0.80;;;5.00;97.80;;;;;;4976153;28;20517;-94
2021/03/05 11:31:13;;;;;;;1.37;0.70;;;5.00;98.60;;;;;;4976363;28;20192;-93
2021/03/05 11:33:40;;;;;;;2.20;0.80;;;5.00;99.20;;;;;;4976183;28;20258;-92
2021/03/05 11:36:06;;;;;;;1.83;0.60;;;5.10;96.90;;;;;;4976576;28;20199;-95
2021/03/05 11:38:32;;;;;;;2.40;0.77;;;5.20;94.10;;;;;;4977155;28;20184;-95
2021/03/05 11:40:59;;;;;;;6.57;0.70;;;5.20;93.70;;;;;;4976322;28;20195;-94
2021/03/05 11:43:25;;;;;;;1.60;0.80;;;5.30;95.30;;;;;;4976747;28;20730;-95
2021/03/05 11:45:50;;;;;;;3.83;0.83;;;5.30;95.10;;;;;;4976836;28;20184;-95
2021/03/05 11:48:16;;;;;;;2.47;0.90;;;5.30;94.00;;;;;;4976149;28;20196;-95
2021/03/05 11:50:42;;;;;;;3.60;0.83;;;5.50;94.50;;;;;;4966409;28;20184;-95
2021/03/05 11:53:08;;;;;;;1.80;0.80;;;5.50;95.60;;;;;;4972743;28;20688;-96
2021/03/05 11:55:34;;;;;;;1.60;0.80;;;5.60;96.50;;;;;;4957213;29;20197;-94
2021/03/05 11:58:00;;;;;;;7.30;1.40;;;5.90;94.10;;;;;;4957448;29;20279;-95
2021/03/05 12:00:28;;;;;;;3.13;0.90;;;5.90;91.90;;;;;;4970976;28;20291;-94
2021/03/05 12:02:53;;;;;;;2.63;0.50;;;5.80;88.50;;;;;;4978462;28;20212;-96
2021/03/05 12:05:19;;;;;;;2.23;0.73;;;5.80;91.30;;;;;;4978854;28;20587;-96
2021/03/05 12:07:55;;;;;;;2.60;0.90;;;5.50;93.20;;;;;;4979035;28;20180;-96
2021/03/05 12:10:22;;;;;;;1.87;0.80;;;5.40;93.20;;;;;;4978174;28;20204;-96
2021/03/05 12:12:47;;;;;;;3.70;0.70;;;5.50;88.20;;;;;;4977478;28;20181;-95
2021/03/05 12:15:14;;;;;;;3.10;0.77;;;5.60;84.30;;;;;;4976665;28;20638;-94
2021/03/05 12:17:53;;;;;;;2.43;0.93;;;5.80;78.30;;;;;;4976364;28;20185;-93
2021/03/05 12:20:19;;;;;;;2.07;0.60;;;6.00;76.00;;;;;;4976585;28;20191;-94
2021/03/05 12:22:44;;;;;;;3.43;0.70;;;6.00;74.40;;;;;;4976454;28;20177;-92
2021/03/05 12:25:11;;;;;;;2.13;0.77;;;6.00;72.10;;;;;;4976420;28;20181;-93
2021/03/05 12:27:37;;;;;;;1.53;0.67;;;6.00;72.00;;;;;;4976469;28;20295;-96
2021/03/05 12:30:03;;;;;;;1.30;0.77;;;6.10;70.70;;;;;;4980044;28;20271;-95
2021/03/05 12:32:29;;;;;;;2.47;0.70;;;6.20;72.50;;;;;;4976708;28;20212;-94
2021/03/05 12:34:55;;;;;;;2.50;0.70;;;6.30;70.70;;;;;;4971657;28;20243;-94
2021/03/05 12:37:24;;;;;;;1.90;0.80;;;6.40;66.10;;;;;;4959213;28;20197;-93
2021/03/05 12:40:08;;;;;;;0.73;0.50;;;6.40;62.60;;;;;;4968898;28;20188;-93
2021/03/05 12:42:35;;;;;;;1.13;0.53;;;6.40;60.00;;;;;;4965291;28;20224;-93
2021/03/05 12:45:05;;;;;;;1.23;0.50;;;6.20;65.70;;;;;;4975562;28;20681;-95
2021/03/05 12:47:33;;;;;;;1.43;0.70;;;6.30;66.10;;;;;;4955798;28;20227;-95
2021/03/05 12:49:59;;;;;;;1.73;0.60;;;6.50;66.20;;;;;;4960769;28;20196;-92
2021/03/05 12:52:25;;;;;;;3.80;0.73;;;6.40;67.40;;;;;;4972642;28;20647;-93
2021/03/05 12:54:51;;;;;;;1.73;0.60;;;6.40;67.20;;;;;;4964062;28;20224;-93
2021/03/05 12:57:17;;;;;;;2.17;0.73;;;6.40;62.10;;;;;;4972369;28;20219;-96
2021/03/05 12:59:43;;;;;;;1.80;0.63;;;6.40;65.00;;;;;;4965372;28;20232;-94
2021/03/05 13:02:10;;;;;;;1.63;0.80;;;6.40;63.70;;;;;;4972225;28;20649;-93
2021/03/05 13:04:37;;;;;;;1.73;0.70;;;6.40;63.40;;;;;;4966523;28;20227;-93